Time,TemperatureF,DewpointF,PressureIn,WindDirection,WindDirectionDegrees,WindSpeedMPH,WindSpeedGustMPH,Humidity,HourlyPrecipIn,Conditions,Clouds,dailyrainin,SoftwareType,DateUTC
2013-04-23 00:01:00,43.0,39.4,30.03,WNW,290,5.0,16.0,87,0.00,,,0.03,meteohub,2013-04-23 05:01:00,
2013-04-23 00:06:00,42.6,38.7,30.03,NNW,340,4.0,16.0,86,0.00,,,0.03,meteohub,2013-04-23 05:06:00,
2013-04-23 00:11:00,42.6,39.0,30.02,NE,48,2.0,16.0,87,0.00,,,0.03,meteohub,2013-04-23 05:11:00,
2013-04-23 00:16:00,42.4,38.8,30.01,ENE,73,7.0,19.0,87,0.00,,,0.03,meteohub,2013-04-23 05:16:00,
2013-04-23 00:21:00,42.3,38.7,30.01,NE,38,9.0,19.0,87,0.00,,,0.03,meteohub,2013-04-23 05:21:00,
2013-04-23 00:26:00,42.1,38.8,30.03,NW,319,6.0,19.0,88,0.00,,,0.03,meteohub,2013-04-23 05:26:00,
2013-04-23 00:31:00,41.7,38.5,30.03,North,10,2.0,19.0,88,0.00,,,0.06,meteohub,2013-04-23 05:31:00,
2013-04-23 00:36:00,41.5,38.3,30.04,NW,325,4.0,19.0,88,0.00,,,0.06,meteohub,2013-04-23 05:36:00,
2013-04-23 00:41:00,41.5,38.5,30.06,WNW,300,13.0,20.0,89,0.05,,,0.06,meteohub,2013-04-23 05:41:00,
2013-04-23 00:46:00,41.5,38.5,30.08,NW,325,14.0,20.0,89,0.05,,,0.06,meteohub,2013-04-23 05:46:00,
2013-04-23 00:51:00,41.4,38.1,30.08,NNW,340,11.0,20.0,88,0.05,,,0.06,meteohub,2013-04-23 05:51:00,
2013-04-23 00:56:00,41.2,37.9,30.07,NNE,32,7.0,20.0,88,0.05,,,0.06,meteohub,2013-04-23 05:56:00,
2013-04-23 01:01:00,41.2,37.9,30.05,NW,323,14.0,20.0,88,0.05,,,0.09,meteohub,2013-04-23 06:01:00,
2013-04-23 01:06:00,40.6,37.4,30.04,NNW,346,10.0,20.0,88,0.05,,,0.09,meteohub,2013-04-23 06:06:00,
2013-04-23 01:11:00,40.5,37.2,30.02,NW,317,6.0,20.0,88,0.06,,,0.09,meteohub,2013-04-23 06:11:00,
2013-04-23 01:16:00,40.3,37.2,30.02,WNW,296,2.0,21.0,89,0.06,,,0.09,meteohub,2013-04-23 06:16:00,
2013-04-23 01:21:00,40.3,37.2,30.02,North,350,8.0,21.0,89,0.06,,,0.09,meteohub,2013-04-23 06:21:00,
2013-04-23 01:26:00,39.9,36.9,30.00,WNW,302,9.0,21.0,89,0.06,,,0.10,meteohub,2013-04-23 06:26:00,
2013-04-23 01:31:00,39.7,36.7,30.02,North,5,1.0,17.0,89,0.02,,,0.10,meteohub,2013-04-23 06:31:00,
2013-04-23 01:36:00,39.7,36.7,30.02,NW,309,9.0,17.0,89,0.02,,,0.10,meteohub,2013-04-23 06:36:00,
2013-04-23 01:41:00,39.7,36.7,30.04,North,350,3.0,17.0,89,0.02,,,0.10,meteohub,2013-04-23 06:41:00,
2013-04-23 01:46:00,39.7,36.7,30.05,NW,306,2.0,17.0,89,0.02,,,0.10,meteohub,2013-04-23 06:46:00,
2013-04-23 01:51:00,39.9,36.9,30.05,NNW,327,6.0,13.0,89,0.02,,,0.10,meteohub,2013-04-23 06:51:00,
2013-04-23 01:56:00,39.7,36.7,30.06,NW,319,6.0,13.0,89,0.02,,,0.10,meteohub,2013-04-23 06:56:00,
2013-04-23 02:01:00,39.7,36.7,30.05,NW,312,6.0,13.0,89,0.02,,,0.10,meteohub,2013-04-23 07:01:00,
2013-04-23 02:06:00,39.6,36.3,30.05,WNW,299,4.0,13.0,88,0.02,,,0.10,meteohub,2013-04-23 07:06:00,
2013-04-23 02:11:00,39.4,36.1,30.05,NNW,334,8.0,13.0,88,0.02,,,0.10,meteohub,2013-04-23 07:11:00,
2013-04-23 02:16:00,39.2,36.0,30.05,NW,318,4.0,19.0,88,0.00,,,0.10,meteohub,2013-04-23 07:16:00,
2013-04-23 02:21:00,39.0,35.8,30.05,North,5,2.0,19.0,88,0.00,,,0.10,meteohub,2013-04-23 07:21:00,
2013-04-23 02:26:00,38.8,35.6,30.04,NW,305,11.0,19.0,88,0.00,,,0.11,meteohub,2013-04-23 07:26:00,
2013-04-23 02:31:00,38.7,35.4,30.04,North,355,12.0,19.0,88,0.01,,,0.11,meteohub,2013-04-23 07:31:00,
2013-04-23 02:36:00,38.5,35.6,30.04,North,351,11.0,16.0,89,0.01,,,0.11,meteohub,2013-04-23 07:36:00,
2013-04-23 02:41:00,38.1,35.2,30.04,NNW,329,13.0,16.0,89,0.01,,,0.11,meteohub,2013-04-23 07:41:00,
2013-04-23 02:46:00,38.1,35.2,30.06,NW,313,1.0,16.0,89,0.01,,,0.11,meteohub,2013-04-23 07:46:00,
2013-04-23 02:51:00,37.9,35.1,30.07,NW,323,9.0,21.0,89,0.02,,,0.11,meteohub,2013-04-23 07:51:00,
2013-04-23 02:56:00,37.8,34.5,30.05,NNW,339,14.0,21.0,88,0.02,,,0.11,meteohub,2013-04-23 07:56:00,
2013-04-23 03:01:00,37.6,34.3,30.04,NNE,14,11.0,21.0,88,0.02,,,0.11,meteohub,2013-04-23 08:01:00,
2013-04-23 03:06:00,37.2,34.3,30.04,NNE,26,6.0,21.0,89,0.02,,,0.13,meteohub,2013-04-23 08:06:00,
2013-04-23 03:11:00,37.0,34.2,30.03,North,350,9.0,21.0,89,0.02,,,0.13,meteohub,2013-04-23 08:11:00,
2013-04-23 03:16:00,37.0,34.2,30.03,NNE,24,4.0,19.0,89,0.06,,,0.13,meteohub,2013-04-23 08:16:00,
2013-04-23 03:21:00,36.9,34.0,30.03,North,9,5.0,19.0,89,0.06,,,0.13,meteohub,2013-04-23 08:21:00,
2013-04-23 03:26:00,36.9,34.2,30.03,NW,305,7.0,19.0,90,0.06,,,0.18,meteohub,2013-04-23 08:26:00,
2013-04-23 03:31:00,36.9,34.2,30.03,NNW,340,11.0,18.0,90,0.07,,,0.18,meteohub,2013-04-23 08:31:00,
2013-04-23 03:36:00,36.9,34.0,30.03,WNW,302,3.0,18.0,89,0.07,,,0.18,meteohub,2013-04-23 08:36:00,
2013-04-23 03:42:00,36.9,34.0,30.03,NNE,26,4.0,18.0,89,0.07,,,0.18,meteohub,2013-04-23 08:42:00,
2013-04-23 03:47:00,36.9,34.2,30.04,NNW,337,4.0,18.0,90,0.07,,,0.19,meteohub,2013-04-23 08:47:00,
2013-04-23 03:52:00,36.9,34.2,30.06,NNW,333,9.0,14.0,90,0.08,,,0.19,meteohub,2013-04-23 08:52:00,
2013-04-23 03:57:00,37.0,34.3,30.06,NW,317,3.0,14.0,90,0.08,,,0.19,meteohub,2013-04-23 08:57:00,
2013-04-23 04:01:00,37.0,34.3,30.07,ENE,67,2.0,14.0,90,0.08,,,0.19,meteohub,2013-04-23 09:01:00,
2013-04-23 04:06:00,37.0,34.3,30.07,North,355,6.0,14.0,90,0.08,,,0.21,meteohub,2013-04-23 09:06:00,
2013-04-23 04:11:00,36.9,34.0,30.06,North,5,4.0,14.0,89,0.08,,,0.21,meteohub,2013-04-23 09:11:00,
2013-04-23 04:16:00,36.7,34.0,30.06,North,355,5.0,19.0,90,0.08,,,0.21,meteohub,2013-04-23 09:16:00,
2013-04-23 04:21:00,36.7,33.8,30.06,NNW,333,18.0,19.0,89,0.08,,,0.21,meteohub,2013-04-23 09:21:00,
2013-04-23 04:26:00,36.3,33.6,30.06,NW,306,6.0,19.0,90,0.08,,,0.26,meteohub,2013-04-23 09:26:00,
2013-04-23 04:31:00,36.3,33.6,30.06,NNW,338,7.0,20.0,90,0.10,,,0.26,meteohub,2013-04-23 09:31:00,
2013-04-23 04:37:00,36.5,33.8,30.06,West,271,5.0,20.0,90,0.10,,,0.26,meteohub,2013-04-23 09:37:00,
2013-04-23 04:42:00,36.1,33.3,30.05,NNW,344,4.0,20.0,89,0.10,,,0.26,meteohub,2013-04-23 09:42:00,
2013-04-23 04:47:00,36.0,33.1,30.03,North,5,5.0,20.0,89,0.10,,,0.29,meteohub,2013-04-23 09:47:00,
2013-04-23 04:52:00,35.8,32.9,30.03,North,349,3.0,20.0,89,0.10,,,0.29,meteohub,2013-04-23 09:52:00,
2013-04-23 04:57:00,35.6,32.7,30.03,WNW,286,6.0,19.0,89,0.10,,,0.29,meteohub,2013-04-23 09:57:00,
2013-04-23 05:02:00,35.4,32.5,30.03,NNW,336,8.0,19.0,89,0.10,,,0.29,meteohub,2013-04-23 10:02:00,
2013-04-23 05:07:00,35.4,32.5,30.04,North,355,5.0,19.0,89,0.10,,,0.29,meteohub,2013-04-23 10:07:00,
2013-04-23 05:12:00,35.4,32.5,30.04,NNW,342,6.0,19.0,89,0.10,,,0.29,meteohub,2013-04-23 10:12:00,
2013-04-23 05:17:00,35.4,32.5,30.04,NNW,347,4.0,19.0,89,0.10,,,0.34,meteohub,2013-04-23 10:17:00,
2013-04-23 05:22:00,35.4,32.5,30.04,NE,44,5.0,19.0,89,0.10,,,0.34,meteohub,2013-04-23 10:22:00,
2013-04-23 05:27:00,35.4,32.5,30.04,NW,319,4.0,19.0,89,0.09,,,0.34,meteohub,2013-04-23 10:27:00,
2013-04-23 05:32:00,35.4,32.5,30.04,NW,325,7.0,21.0,89,0.09,,,0.34,meteohub,2013-04-23 10:32:00,
2013-04-23 05:37:00,35.8,32.9,30.05,NNW,336,5.0,21.0,89,0.09,,,0.34,meteohub,2013-04-23 10:37:00,
2013-04-23 05:42:00,35.6,32.7,30.04,NNW,340,13.0,21.0,89,0.09,,,0.34,meteohub,2013-04-23 10:42:00,
2013-04-23 05:47:00,35.6,32.7,30.04,NNW,344,10.0,21.0,89,0.09,,,0.39,meteohub,2013-04-23 10:47:00,
2013-04-23 05:52:00,35.4,32.5,30.04,NE,56,10.0,21.0,89,0.09,,,0.39,meteohub,2013-04-23 10:52:00,
2013-04-23 05:57:00,35.4,32.5,30.03,NNW,347,9.0,21.0,89,0.10,,,0.39,meteohub,2013-04-23 10:57:00,
2013-04-23 06:02:00,35.4,32.5,30.03,NNW,340,8.0,17.0,89,0.10,,,0.39,meteohub,2013-04-23 11:02:00,
2013-04-23 06:07:00,35.4,32.5,30.03,WNW,290,6.0,17.0,89,0.10,,,0.39,meteohub,2013-04-23 11:07:00,
2013-04-23 06:12:00,35.4,32.5,30.03,North,355,12.0,17.0,89,0.10,,,0.39,meteohub,2013-04-23 11:12:00,
2013-04-23 06:17:00,35.4,32.5,30.02,North,355,2.0,17.0,89,0.10,,,0.39,meteohub,2013-04-23 11:17:00,
2013-04-23 06:22:00,35.4,32.5,30.02,NE,53,7.0,17.0,89,0.10,,,0.41,meteohub,2013-04-23 11:22:00,
2013-04-23 06:27:00,35.4,32.5,30.02,NNW,348,3.0,17.0,89,0.10,,,0.41,meteohub,2013-04-23 11:27:00,
2013-04-23 06:32:00,35.4,32.5,30.02,NE,51,4.0,17.0,89,0.10,,,0.41,meteohub,2013-04-23 11:32:00,
2013-04-23 06:37:00,35.4,32.5,30.02,NNE,16,4.0,17.0,89,0.05,,,0.41,meteohub,2013-04-23 11:37:00,
2013-04-23 06:42:00,35.4,32.5,30.03,North,5,12.0,14.0,89,0.05,,,0.41,meteohub,2013-04-23 11:42:00,
2013-04-23 06:47:00,35.6,32.7,30.04,North,0,6.0,14.0,89,0.05,,,0.41,meteohub,2013-04-23 11:47:00,
2013-04-23 06:52:00,35.8,32.9,30.05,NNE,22,4.0,14.0,89,0.05,,,0.41,meteohub,2013-04-23 11:52:00,
2013-04-23 06:57:00,35.8,32.5,30.05,NNE,15,6.0,14.0,88,0.05,,,0.41,meteohub,2013-04-23 11:57:00,
2013-04-23 07:02:00,35.8,32.5,30.06,NNW,336,5.0,14.0,88,0.05,,,0.41,meteohub,2013-04-23 12:02:00,
2013-04-23 07:07:00,35.8,32.5,30.09,NW,320,2.0,14.0,88,0.05,,,0.41,meteohub,2013-04-23 12:07:00,
2013-04-23 07:12:00,35.8,32.5,30.05,North,0,6.0,14.0,88,0.05,,,0.41,meteohub,2013-04-23 12:12:00,
2013-04-23 07:17:00,35.6,32.2,30.04,NW,307,7.0,14.0,87,0.05,,,0.41,meteohub,2013-04-23 12:17:00,
2013-04-23 07:22:00,35.4,32.2,30.05,NNW,329,4.0,14.0,88,0.05,,,0.41,meteohub,2013-04-23 12:22:00,
2013-04-23 07:27:00,35.4,32.2,30.05,NNE,13,5.0,14.0,88,0.00,,,0.41,meteohub,2013-04-23 12:27:00,
2013-04-23 07:32:00,35.2,32.0,30.06,WNW,300,6.0,19.0,88,0.00,,,0.41,meteohub,2013-04-23 12:32:00,
2013-04-23 07:37:00,35.1,32.2,30.07,North,350,14.0,19.0,89,0.00,,,0.41,meteohub,2013-04-23 12:37:00,
2013-04-23 07:42:00,35.2,32.4,30.08,NW,325,17.0,19.0,89,0.00,,,0.41,meteohub,2013-04-23 12:42:00,
2013-04-23 07:47:00,35.1,32.2,30.07,North,350,11.0,19.0,89,0.00,,,0.41,meteohub,2013-04-23 12:47:00,
2013-04-23 07:52:00,35.1,32.2,30.06,NE,49,7.0,19.0,89,0.00,,,0.41,meteohub,2013-04-23 12:52:00,
2013-04-23 07:57:00,34.9,32.0,30.06,North,355,10.0,19.0,89,0.00,,,0.50,meteohub,2013-04-23 12:57:00,
2013-04-23 08:02:00,34.5,31.6,30.07,WNW,298,7.0,19.0,89,0.00,,,0.50,meteohub,2013-04-23 13:02:00,
2013-04-23 08:07:00,34.5,31.6,30.08,NW,311,9.0,19.0,89,0.00,,,0.50,meteohub,2013-04-23 13:07:00,
2013-04-23 08:12:00,34.9,32.2,30.10,NE,42,4.0,19.0,90,0.12,,,0.50,meteohub,2013-04-23 13:12:00,
2013-04-23 08:17:00,34.7,31.8,30.11,NW,306,9.0,20.0,89,0.12,,,0.50,meteohub,2013-04-23 13:17:00,
2013-04-23 08:22:00,34.5,31.6,30.12,NW,322,1.0,20.0,89,0.12,,,0.50,meteohub,2013-04-23 13:22:00,
2013-04-23 08:27:00,34.3,31.6,30.12,NNE,31,4.0,20.0,90,0.12,,,0.50,meteohub,2013-04-23 13:27:00,
2013-04-23 08:32:00,34.3,31.6,30.11,NNW,342,7.0,20.0,90,0.12,,,0.54,meteohub,2013-04-23 13:32:00,
2013-04-23 08:37:00,34.2,31.5,30.11,NE,42,1.0,20.0,90,0.12,,,0.54,meteohub,2013-04-23 13:37:00,
2013-04-23 08:42:00,34.2,31.5,30.10,NNW,340,6.0,20.0,90,0.08,,,0.54,meteohub,2013-04-23 13:42:00,
2013-04-23 08:47:00,33.8,31.1,30.09,NNW,343,3.0,17.0,90,0.08,,,0.54,meteohub,2013-04-23 13:47:00,
2013-04-23 08:52:00,33.6,31.3,30.09,NNE,15,4.0,17.0,91,0.08,,,0.54,meteohub,2013-04-23 13:52:00,
2013-04-23 08:57:00,33.6,31.3,30.10,NNE,33,12.0,17.0,91,0.08,,,0.54,meteohub,2013-04-23 13:57:00,
2013-04-23 09:02:00,33.6,31.3,30.08,NNW,335,4.0,17.0,91,0.08,,,0.54,meteohub,2013-04-23 14:02:00,
2013-04-23 09:07:00,33.6,31.3,30.09,NNE,24,2.0,17.0,91,0.08,,,0.54,meteohub,2013-04-23 14:07:00,
2013-04-23 09:12:00,33.6,31.3,30.08,North,5,4.0,17.0,91,0.02,,,0.54,meteohub,2013-04-23 14:12:00,
2013-04-23 09:17:00,33.6,31.3,30.08,North,355,8.0,17.0,91,0.02,,,0.54,meteohub,2013-04-23 14:17:00,
2013-04-23 09:22:00,33.6,30.9,30.08,ENE,65,5.0,17.0,90,0.02,,,0.54,meteohub,2013-04-23 14:22:00,
2013-04-23 09:27:00,33.6,31.3,30.08,North,355,4.0,17.0,91,0.02,,,0.54,meteohub,2013-04-23 14:27:00,
2013-04-23 09:32:00,33.8,31.5,30.09,North,355,5.0,17.0,91,0.02,,,0.55,meteohub,2013-04-23 14:32:00,
2013-04-23 09:37:00,33.8,31.1,30.09,NNW,340,7.0,17.0,90,0.02,,,0.55,meteohub,2013-04-23 14:37:00,
2013-04-23 09:42:00,33.8,31.1,30.09,NNW,340,3.0,17.0,90,0.02,,,0.55,meteohub,2013-04-23 14:42:00,
2013-04-23 09:47:00,34.0,31.3,30.10,NNW,348,5.0,15.0,90,0.02,,,0.55,meteohub,2013-04-23 14:47:00,
2013-04-23 09:52:00,34.0,31.3,30.10,NW,306,1.0,15.0,90,0.02,,,0.55,meteohub,2013-04-23 14:52:00,
2013-04-23 09:57:00,33.8,31.1,30.09,NNE,24,10.0,15.0,90,0.02,,,0.55,meteohub,2013-04-23 14:57:00,
2013-04-23 10:02:00,33.8,30.9,30.09,NNW,343,9.0,15.0,89,0.02,,,0.55,meteohub,2013-04-23 15:02:00,
2013-04-23 10:07:00,34.0,31.1,30.09,NNE,20,6.0,15.0,89,0.02,,,0.57,meteohub,2013-04-23 15:07:00,
2013-04-23 10:12:00,33.8,30.9,30.09,NE,56,6.0,15.0,89,0.02,,,0.57,meteohub,2013-04-23 15:12:00,
2013-04-23 10:17:00,33.8,30.9,30.09,WNW,303,2.0,15.0,89,0.02,,,0.57,meteohub,2013-04-23 15:17:00,
2013-04-23 10:22:00,34.0,31.1,30.09,NW,306,7.0,18.0,89,0.02,,,0.57,meteohub,2013-04-23 15:22:00,
2013-04-23 10:27:00,33.8,30.9,30.09,North,5,5.0,18.0,89,0.02,,,0.57,meteohub,2013-04-23 15:27:00,
2013-04-23 10:32:00,33.8,30.9,30.10,NE,43,5.0,18.0,89,0.02,,,0.57,meteohub,2013-04-23 15:32:00,
2013-04-23 10:37:00,34.0,31.1,30.09,NNW,346,11.0,18.0,89,0.02,,,0.57,meteohub,2013-04-23 15:37:00,
2013-04-23 10:42:00,33.8,30.9,30.09,NNW,344,7.0,18.0,89,0.02,,,0.58,meteohub,2013-04-23 15:42:00,
2013-04-23 10:47:00,34.0,31.1,30.09,NNE,23,2.0,18.0,89,0.02,,,0.58,meteohub,2013-04-23 15:47:00,
2013-04-23 10:52:00,34.0,31.1,30.09,NE,40,3.0,18.0,89,0.02,,,0.58,meteohub,2013-04-23 15:52:00,
2013-04-23 10:57:00,34.0,30.7,30.10,NNW,343,2.0,17.0,88,0.02,,,0.58,meteohub,2013-04-23 15:57:00,
2013-04-23 11:02:00,34.2,31.3,30.10,WNW,300,7.0,17.0,89,0.02,,,0.58,meteohub,2013-04-23 16:02:00,
2013-04-23 11:07:00,34.0,31.1,30.10,NNE,15,1.0,17.0,89,0.02,,,0.58,meteohub,2013-04-23 16:07:00,
2013-04-23 11:12:00,34.0,31.1,30.10,NW,325,4.0,17.0,89,0.02,,,0.58,meteohub,2013-04-23 16:12:00,
2013-04-23 11:17:00,34.0,31.1,30.11,NW,325,2.0,17.0,89,0.02,,,0.59,meteohub,2013-04-23 16:17:00,
2013-04-23 11:22:00,34.0,31.1,30.11,ENE,59,5.0,17.0,89,0.02,,,0.59,meteohub,2013-04-23 16:22:00,
2013-04-23 11:27:00,34.0,31.1,30.11,NNW,328,5.0,17.0,89,0.02,,,0.59,meteohub,2013-04-23 16:27:00,
2013-04-23 11:32:00,34.0,31.1,30.12,NW,324,3.0,16.0,89,0.02,,,0.59,meteohub,2013-04-23 16:32:00,
2013-04-23 11:37:00,33.8,30.9,30.11,NW,313,14.0,16.0,89,0.02,,,0.59,meteohub,2013-04-23 16:37:00,
2013-04-23 11:42:00,33.6,30.7,30.11,NW,313,7.0,16.0,89,0.02,,,0.59,meteohub,2013-04-23 16:42:00,
2013-04-23 11:47:00,33.4,30.6,30.11,NNE,27,5.0,16.0,89,0.02,,,0.59,meteohub,2013-04-23 16:47:00,
2013-04-23 11:52:00,33.6,30.7,30.11,ENE,63,3.0,16.0,89,0.02,,,0.59,meteohub,2013-04-23 16:52:00,
2013-04-23 11:57:00,33.8,31.1,30.11,NNW,346,6.0,16.0,90,0.01,,,0.59,meteohub,2013-04-23 16:57:00,
2013-04-23 12:02:00,33.6,30.7,30.11,North,10,4.0,15.0,89,0.01,,,0.59,meteohub,2013-04-23 17:02:00,
2013-04-23 12:07:00,33.6,30.7,30.11,NNW,339,11.0,15.0,89,0.01,,,0.59,meteohub,2013-04-23 17:07:00,
2013-04-23 12:12:00,33.4,30.6,30.11,North,355,4.0,15.0,89,0.01,,,0.59,meteohub,2013-04-23 17:12:00,
2013-04-23 12:17:00,33.4,30.6,30.11,WSW,253,5.0,15.0,89,0.01,,,0.59,meteohub,2013-04-23 17:17:00,
2013-04-23 12:22:00,33.4,30.6,30.11,North,11,15.0,15.0,89,0.01,,,0.60,meteohub,2013-04-23 17:22:00,
2013-04-23 12:27:00,33.4,30.6,30.11,NNE,22,4.0,15.0,89,0.01,,,0.60,meteohub,2013-04-23 17:27:00,
2013-04-23 12:32:00,33.6,30.7,30.11,NW,325,3.0,15.0,89,0.01,,,0.60,meteohub,2013-04-23 17:32:00,
2013-04-23 12:37:00,33.4,30.6,30.12,NNE,13,9.0,18.0,89,0.01,,,0.60,meteohub,2013-04-23 17:37:00,
2013-04-23 12:42:00,33.6,30.7,30.11,NW,313,3.0,18.0,89,0.01,,,0.60,meteohub,2013-04-23 17:42:00,
2013-04-23 12:47:00,33.6,30.7,30.11,North,5,8.0,18.0,89,0.01,,,0.60,meteohub,2013-04-23 17:47:00,
2013-04-23 12:52:00,33.8,30.9,30.11,NW,326,5.0,18.0,89,0.01,,,0.60,meteohub,2013-04-23 17:52:00,
2013-04-23 12:57:00,34.0,31.1,30.11,NNW,340,12.0,18.0,89,0.01,,,0.60,meteohub,2013-04-23 17:57:00,
2013-04-23 13:02:00,34.0,30.7,30.12,ENE,62,4.0,18.0,88,0.01,,,0.61,meteohub,2013-04-23 18:02:00,
2013-04-23 13:07:00,33.8,30.6,30.11,NNE,20,5.0,18.0,88,0.01,,,0.61,meteohub,2013-04-23 18:07:00,
2013-04-23 13:12:00,33.8,30.6,30.11,NE,56,5.0,18.0,88,0.01,,,0.61,meteohub,2013-04-23 18:12:00,
2013-04-23 13:17:00,33.8,30.6,30.11,NW,323,4.0,17.0,88,0.01,,,0.61,meteohub,2013-04-23 18:17:00,
2013-04-23 13:22:00,34.0,30.7,30.10,North,10,6.0,17.0,88,0.01,,,0.61,meteohub,2013-04-23 18:22:00,
2013-04-23 13:27:00,34.0,30.7,30.10,NNE,15,5.0,17.0,88,0.01,,,0.61,meteohub,2013-04-23 18:27:00,
2013-04-23 13:32:00,34.0,30.7,30.10,WNW,296,3.0,17.0,88,0.01,,,0.61,meteohub,2013-04-23 18:32:00,
2013-04-23 13:37:00,34.2,30.9,30.11,North,355,12.0,17.0,88,0.01,,,0.61,meteohub,2013-04-23 18:37:00,
2013-04-23 13:42:00,34.2,30.9,30.11,NNE,13,4.0,18.0,88,0.01,,,0.61,meteohub,2013-04-23 18:42:00,
2013-04-23 13:47:00,34.2,30.7,30.11,North,351,6.0,18.0,87,0.01,,,0.61,meteohub,2013-04-23 18:47:00,
2013-04-23 13:52:00,34.2,30.7,30.11,NW,323,7.0,18.0,87,0.01,,,0.61,meteohub,2013-04-23 18:52:00,
2013-04-23 13:57:00,34.3,31.1,30.11,NNW,335,12.0,18.0,88,0.01,,,0.62,meteohub,2013-04-23 18:57:00,
2013-04-23 14:02:00,34.3,31.1,30.12,NNW,342,10.0,16.0,88,0.01,,,0.62,meteohub,2013-04-23 19:02:00,
2013-04-23 14:07:00,34.3,31.1,30.12,NNW,342,6.0,16.0,88,0.01,,,0.62,meteohub,2013-04-23 19:07:00,
2013-04-23 14:12:00,34.5,31.3,30.12,North,355,8.0,16.0,88,0.01,,,0.62,meteohub,2013-04-23 19:12:00,
2013-04-23 14:17:00,34.7,31.5,30.12,NNW,335,11.0,16.0,88,0.01,,,0.62,meteohub,2013-04-23 19:17:00,
2013-04-23 14:22:00,34.5,31.3,30.12,NW,319,1.0,17.0,88,0.01,,,0.62,meteohub,2013-04-23 19:22:00,
2013-04-23 14:27:00,34.7,31.5,30.12,NW,321,11.0,17.0,88,0.01,,,0.62,meteohub,2013-04-23 19:27:00,
2013-04-23 14:32:00,34.5,31.1,30.12,North,355,11.0,17.0,87,0.01,,,0.63,meteohub,2013-04-23 19:32:00,
2013-04-23 14:37:00,34.3,30.9,30.12,WNW,301,4.0,17.0,87,0.01,,,0.63,meteohub,2013-04-23 19:37:00,
2013-04-23 14:42:00,34.3,30.9,30.12,NW,317,6.0,18.0,87,0.02,,,0.63,meteohub,2013-04-23 19:42:00,
2013-04-23 14:47:00,34.3,31.1,30.11,ENE,72,4.0,18.0,88,0.02,,,0.63,meteohub,2013-04-23 19:47:00,
2013-04-23 14:52:00,34.5,31.6,30.12,NNW,330,2.0,18.0,89,0.02,,,0.63,meteohub,2013-04-23 19:52:00,
2013-04-23 14:57:00,34.7,31.5,30.11,WNW,293,7.0,18.0,88,0.02,,,0.63,meteohub,2013-04-23 19:57:00,
2013-04-23 15:02:00,34.9,31.6,30.11,NNW,348,10.0,15.0,88,0.01,,,0.63,meteohub,2013-04-23 20:02:00,
2013-04-23 15:07:00,34.9,31.6,30.11,NE,42,2.0,15.0,88,0.01,,,0.63,meteohub,2013-04-23 20:07:00,
2013-04-23 15:12:00,34.9,31.5,30.11,NW,321,10.0,15.0,87,0.01,,,0.64,meteohub,2013-04-23 20:12:00,
2013-04-23 15:17:00,35.1,31.8,30.11,WNW,294,8.0,15.0,88,0.01,,,0.64,meteohub,2013-04-23 20:17:00,
2013-04-23 15:22:00,35.1,31.6,30.11,North,11,4.0,16.0,87,0.02,,,0.64,meteohub,2013-04-23 20:22:00,
2013-04-23 15:27:00,35.2,31.8,30.11,NW,313,5.0,16.0,87,0.02,,,0.64,meteohub,2013-04-23 20:27:00,
2013-04-23 15:32:00,35.4,32.0,30.11,NNW,335,4.0,16.0,87,0.02,,,0.64,meteohub,2013-04-23 20:32:00,
2013-04-23 15:37:00,35.6,31.8,30.11,SSW,204,4.0,16.0,86,0.02,,,0.64,meteohub,2013-04-23 20:37:00,
2013-04-23 15:42:00,35.6,31.5,30.11,North,349,13.0,16.0,85,0.01,,,0.64,meteohub,2013-04-23 20:42:00,
2013-04-23 15:47:00,35.6,31.5,30.11,NNW,340,6.0,16.0,85,0.01,,,0.64,meteohub,2013-04-23 20:47:00,
2013-04-23 15:52:00,36.0,31.8,30.11,NW,323,6.0,16.0,85,0.01,,,0.65,meteohub,2013-04-23 20:52:00,
2013-04-23 15:57:00,36.1,32.0,30.11,WNW,295,4.0,16.0,85,0.01,,,0.65,meteohub,2013-04-23 20:57:00,
2013-04-23 16:02:00,36.3,32.2,30.11,WNW,302,5.0,15.0,85,0.02,,,0.65,meteohub,2013-04-23 21:02:00,
2013-04-23 16:07:00,36.5,33.6,30.11,NNW,333,11.0,15.0,89,0.02,,,0.65,meteohub,2013-04-23 21:07:00,
2013-04-23 16:12:00,36.7,32.4,30.11,NNE,28,3.0,15.0,84,0.02,,,0.65,meteohub,2013-04-23 21:12:00,
2013-04-23 16:17:00,36.7,32.0,30.11,NNW,337,6.0,15.0,83,0.02,,,0.65,meteohub,2013-04-23 21:17:00,
2013-04-23 16:22:00,36.5,31.8,30.10,NNW,330,6.0,14.0,83,0.01,,,0.65,meteohub,2013-04-23 21:22:00,
2013-04-23 16:27:00,36.5,31.8,30.11,North,9,7.0,14.0,83,0.01,,,0.65,meteohub,2013-04-23 21:27:00,
2013-04-23 16:32:00,36.7,31.6,30.11,NNE,30,7.0,14.0,82,0.01,,,0.65,meteohub,2013-04-23 21:32:00,
2013-04-23 16:37:00,36.9,32.2,30.11,North,349,14.0,14.0,83,0.01,,,0.65,meteohub,2013-04-23 21:37:00,
2013-04-23 16:42:00,36.9,32.2,30.12,North,355,3.0,19.0,83,0.01,,,0.65,meteohub,2013-04-23 21:42:00,
2013-04-23 16:47:00,37.0,32.4,30.11,North,351,8.0,19.0,83,0.01,,,0.65,meteohub,2013-04-23 21:47:00,
2013-04-23 16:52:00,37.0,32.4,30.11,North,5,3.0,19.0,83,0.01,,,0.65,meteohub,2013-04-23 21:52:00,
2013-04-23 16:57:00,37.0,32.4,30.11,North,5,2.0,19.0,83,0.01,,,0.65,meteohub,2013-04-23 21:57:00,
2013-04-23 17:02:00,37.0,32.4,30.11,NNW,329,8.0,17.0,83,0.00,,,0.65,meteohub,2013-04-23 22:02:00,
2013-04-23 17:07:00,37.0,32.4,30.11,NW,324,4.0,17.0,83,0.00,,,0.65,meteohub,2013-04-23 22:07:00,
2013-04-23 17:12:00,37.2,32.5,30.11,WNW,293,6.0,17.0,83,0.00,,,0.65,meteohub,2013-04-23 22:12:00,
2013-04-23 17:17:00,37.2,32.5,30.10,NNW,344,3.0,17.0,83,0.00,,,0.65,meteohub,2013-04-23 22:17:00,
2013-04-23 17:22:00,37.4,32.7,30.11,North,10,8.0,14.0,83,0.00,,,0.65,meteohub,2013-04-23 22:22:00,
2013-04-23 17:27:00,37.6,32.5,30.11,NW,326,5.0,14.0,82,0.00,,,0.65,meteohub,2013-04-23 22:27:00,
2013-04-23 17:32:00,37.6,32.9,30.11,WNW,298,9.0,14.0,83,0.00,,,0.65,meteohub,2013-04-23 22:32:00,
2013-04-23 17:37:00,37.6,32.9,30.10,NNW,327,9.0,14.0,83,0.00,,,0.65,meteohub,2013-04-23 22:37:00,
2013-04-23 17:42:00,37.8,32.7,30.11,NW,324,3.0,15.0,82,0.00,,,0.65,meteohub,2013-04-23 22:42:00,
2013-04-23 17:47:00,37.9,32.9,30.11,NNW,330,1.0,15.0,82,0.00,,,0.65,meteohub,2013-04-23 22:47:00,
2013-04-23 17:52:00,38.1,33.1,30.11,NNW,330,6.0,15.0,82,0.00,,,0.65,meteohub,2013-04-23 22:52:00,
2013-04-23 17:57:00,37.9,32.7,30.11,NW,307,7.0,15.0,81,0.00,,,0.65,meteohub,2013-04-23 22:57:00,
2013-04-23 18:02:00,37.9,32.7,30.11,NW,306,4.0,14.0,81,0.00,,,0.65,meteohub,2013-04-23 23:02:00,
2013-04-23 18:07:00,38.1,33.1,30.11,NW,310,2.0,14.0,82,0.00,,,0.65,meteohub,2013-04-23 23:07:00,
2013-04-23 18:12:00,38.3,32.9,30.10,WNW,302,5.0,14.0,81,0.00,,,0.65,meteohub,2013-04-23 23:12:00,
2013-04-23 18:17:00,38.3,32.9,30.10,NW,318,3.0,14.0,81,0.00,,,0.65,meteohub,2013-04-23 23:17:00,
2013-04-23 18:22:00,38.5,32.9,30.11,NW,313,4.0,14.0,80,0.00,,,0.66,meteohub,2013-04-23 23:22:00,
2013-04-23 18:27:00,38.5,32.9,30.11,NNW,331,9.0,14.0,80,0.01,,,0.66,meteohub,2013-04-23 23:27:00,
2013-04-23 18:32:00,38.7,33.1,30.11,NNW,341,10.0,12.0,80,0.01,,,0.66,meteohub,2013-04-23 23:32:00,
2013-04-23 18:37:00,38.7,33.1,30.11,NW,304,10.0,12.0,80,0.01,,,0.66,meteohub,2013-04-23 23:37:00,
2013-04-23 18:42:00,38.7,32.7,30.11,WNW,300,6.0,12.0,79,0.01,,,0.66,meteohub,2013-04-23 23:42:00,
2013-04-23 18:47:00,38.7,32.4,30.11,North,355,3.0,12.0,78,0.01,,,0.66,meteohub,2013-04-23 23:47:00,
2013-04-23 18:52:00,38.7,32.4,30.11,NNW,331,5.0,12.0,78,0.01,,,0.66,meteohub,2013-04-23 23:52:00,
2013-04-23 18:57:00,38.7,32.0,30.11,WNW,299,6.0,12.0,77,0.01,,,0.66,meteohub,2013-04-23 23:57:00,
2013-04-23 19:02:00,38.8,32.2,30.12,WNW,299,6.0,14.0,77,0.01,,,0.66,meteohub,2013-04-24 00:02:00,
2013-04-23 19:07:00,38.8,32.0,30.12,NW,314,7.0,14.0,76,0.01,,,0.66,meteohub,2013-04-24 00:07:00,
2013-04-23 19:12:00,38.8,32.0,30.12,NW,308,3.0,14.0,76,0.01,,,0.66,meteohub,2013-04-24 00:12:00,
2013-04-23 19:17:00,39.0,32.2,30.12,WNW,297,11.0,14.0,76,0.01,,,0.00,meteohub,2013-04-24 00:17:00,
2013-04-23 19:22:00,39.0,32.2,30.12,WNW,300,3.0,14.0,76,0.00,,,0.00,meteohub,2013-04-24 00:22:00,
2013-04-23 19:27:00,39.2,32.4,30.12,WNW,291,2.0,14.0,76,0.00,,,0.00,meteohub,2013-04-24 00:27:00,
2013-04-23 19:32:00,39.2,32.0,30.12,NNW,329,2.0,14.0,75,0.00,,,0.00,meteohub,2013-04-24 00:32:00,
2013-04-23 19:37:00,39.2,32.0,30.11,NNW,338,2.0,14.0,75,0.00,,,0.00,meteohub,2013-04-24 00:37:00,
2013-04-23 19:42:00,39.2,32.0,30.12,NW,307,7.0,14.0,75,0.00,,,0.00,meteohub,2013-04-24 00:42:00,
2013-04-23 19:47:00,39.0,31.8,30.12,WNW,303,4.0,11.0,75,0.00,,,0.00,meteohub,2013-04-24 00:47:00,
2013-04-23 19:52:00,39.0,31.8,30.12,NW,315,5.0,11.0,75,0.00,,,0.00,meteohub,2013-04-24 00:52:00,
2013-04-23 19:57:00,39.0,31.8,30.12,NW,313,6.0,11.0,75,0.00,,,0.00,meteohub,2013-04-24 00:57:00,
2013-04-23 20:02:00,39.2,32.0,30.12,WNW,302,1.0,11.0,75,0.00,,,0.00,meteohub,2013-04-24 01:02:00,
2013-04-23 20:07:00,39.2,32.0,30.12,NW,307,2.0,11.0,75,0.00,,,0.00,meteohub,2013-04-24 01:07:00,
2013-04-23 20:12:00,39.4,32.2,30.12,NW,304,5.0,11.0,75,0.00,,,0.00,meteohub,2013-04-24 01:12:00,
2013-04-23 20:17:00,39.4,32.2,30.12,NW,322,4.0,11.0,75,0.00,,,0.00,meteohub,2013-04-24 01:17:00,
2013-04-23 20:22:00,39.4,32.2,30.13,West,281,4.0,11.0,75,0.00,,,0.00,meteohub,2013-04-24 01:22:00,
2013-04-23 20:27:00,39.4,32.2,30.13,NW,319,6.0,10.0,75,0.00,,,0.00,meteohub,2013-04-24 01:27:00,
2013-04-23 20:32:00,39.2,31.6,30.13,NW,321,3.0,10.0,74,0.00,,,0.00,meteohub,2013-04-24 01:32:00,
2013-04-23 20:37:00,39.2,31.6,30.14,NW,313,4.0,10.0,74,0.00,,,0.00,meteohub,2013-04-24 01:37:00,
2013-04-23 20:42:00,39.4,31.8,30.14,NW,315,5.0,10.0,74,0.00,,,0.00,meteohub,2013-04-24 01:42:00,
2013-04-23 20:47:00,39.4,31.8,30.14,NW,321,3.0,12.0,74,0.00,,,0.00,meteohub,2013-04-24 01:47:00,
2013-04-23 20:52:00,39.4,32.2,30.14,NW,315,8.0,12.0,75,0.00,,,0.00,meteohub,2013-04-24 01:52:00,
2013-04-23 20:57:00,39.4,31.8,30.14,WNW,289,5.0,12.0,74,0.00,,,0.00,meteohub,2013-04-24 01:57:00,
2013-04-23 21:02:00,39.6,32.0,30.15,WNW,291,3.0,12.0,74,0.00,,,0.00,meteohub,2013-04-24 02:02:00,
2013-04-23 21:07:00,39.6,32.0,30.15,NW,325,5.0,10.0,74,0.00,,,0.00,meteohub,2013-04-24 02:07:00,
2013-04-23 21:12:00,39.7,32.2,30.15,NNW,328,10.0,10.0,74,0.00,,,0.00,meteohub,2013-04-24 02:12:00,
2013-04-23 21:19:00,39.7,32.2,30.15,NNW,327,4.0,10.0,74,0.00,,,0.00,meteohub,2013-04-24 02:19:00,
2013-04-23 21:24:00,39.6,31.6,30.15,NW,310,7.0,14.0,73,0.00,,,0.00,meteohub,2013-04-24 02:24:00,
2013-04-23 21:30:00,39.6,31.6,30.15,NNW,341,11.0,14.0,73,0.00,,,0.00,meteohub,2013-04-24 02:30:00,
2013-04-23 21:35:00,39.6,31.6,30.16,NW,325,11.0,14.0,73,0.00,,,0.00,meteohub,2013-04-24 02:35:00,
2013-04-23 21:40:00,39.6,31.6,30.16,NW,319,11.0,14.0,73,0.00,,,0.00,meteohub,2013-04-24 02:40:00,
2013-04-23 21:45:00,39.4,31.8,30.17,WNW,300,10.0,14.0,74,0.00,,,0.00,meteohub,2013-04-24 02:45:00,
2013-04-23 21:51:00,38.8,32.2,30.18,NNW,328,13.0,14.0,77,0.00,,,0.00,meteohub,2013-04-24 02:51:00,
2013-04-23 21:56:00,38.1,32.2,30.18,WNW,302,7.0,14.0,79,0.00,,,0.00,meteohub,2013-04-24 02:56:00,
2013-04-23 22:01:00,37.4,32.2,30.19,NW,311,7.0,14.0,81,0.00,,,0.00,meteohub,2013-04-24 03:01:00,
2013-04-23 22:06:00,37.0,32.7,30.19,NW,319,7.0,23.0,84,0.00,,,0.00,meteohub,2013-04-24 03:06:00,
2013-04-23 22:12:00,37.0,32.7,30.19,West,275,12.0,23.0,84,0.00,,,0.00,meteohub,2013-04-24 03:12:00,
2013-04-23 22:17:00,36.9,32.5,30.20,North,355,11.0,16.0,84,0.00,,,0.00,meteohub,2013-04-24 03:17:00,
2013-04-23 22:22:00,36.9,32.7,30.20,ENE,61,2.0,16.0,85,0.00,,,0.00,meteohub,2013-04-24 03:22:00,
2013-04-23 22:28:00,37.0,32.7,30.20,NW,319,9.0,16.0,84,0.00,,,0.00,meteohub,2013-04-24 03:28:00,
2013-04-23 22:33:00,36.7,32.0,30.20,NW,311,9.0,13.0,83,0.00,,,0.00,meteohub,2013-04-24 03:33:00,
2013-04-23 22:40:00,36.5,32.2,30.20,NNW,343,2.0,13.0,84,0.00,,,0.00,meteohub,2013-04-24 03:40:00,
2013-04-23 22:45:00,36.3,32.2,30.20,NW,319,1.0,13.0,85,0.00,,,0.00,meteohub,2013-04-24 03:45:00,
2013-04-23 22:51:00,36.1,32.4,30.20,NW,323,2.0,13.0,86,0.01,,,0.00,meteohub,2013-04-24 03:51:00,
2013-04-23 22:57:00,36.1,32.4,30.20,NNE,13,2.0,12.0,86,0.01,,,0.00,meteohub,2013-04-24 03:57:00,
2013-04-23 23:01:00,36.0,33.8,30.20,NW,315,6.0,12.0,92,0.01,,,0.00,meteohub,2013-04-24 04:01:00,
2013-04-23 23:06:00,36.0,32.5,30.21,NW,311,3.0,12.0,87,0.01,,,0.01,meteohub,2013-04-24 04:06:00,
2013-04-23 23:11:00,35.4,32.0,30.20,WNW,294,2.0,12.0,87,0.01,,,0.01,meteohub,2013-04-24 04:11:00,
2013-04-23 23:16:00,35.2,32.0,30.20,West,281,1.0,7.0,88,0.02,,,0.01,meteohub,2013-04-24 04:16:00,
2013-04-23 23:21:00,35.2,32.4,30.20,WNW,298,2.0,7.0,89,0.02,,,0.02,meteohub,2013-04-24 04:21:00,
2013-04-23 23:26:00,35.1,32.2,30.20,WNW,282,2.0,7.0,89,0.02,,,0.02,meteohub,2013-04-24 04:26:00,
2013-04-23 23:31:00,35.1,32.2,30.21,West,266,1.0,7.0,89,0.02,,,0.02,meteohub,2013-04-24 04:31:00,
2013-04-23 23:36:00,34.9,32.2,30.21,West,277,3.0,7.0,90,0.02,,,0.02,meteohub,2013-04-24 04:36:00,
2013-04-23 23:41:00,34.9,32.2,30.21,West,279,1.0,7.0,90,0.02,,,0.02,meteohub,2013-04-24 04:41:00,
2013-04-23 23:46:00,34.9,32.2,30.20,West,277,1.0,7.0,90,0.02,,,0.03,meteohub,2013-04-24 04:46:00,
2013-04-23 23:51:00,34.9,32.2,30.20,WSW,254,1.0,4.0,90,0.02,,,0.03,meteohub,2013-04-24 04:51:00,
2013-04-23 23:56:00,34.9,32.2,30.20,WSW,257,2.0,4.0,90,0.02,,,0.03,meteohub,2013-04-24 04:56:00,